sensor_id;sensor_type;location;lat;lon;timestamp;pressure;altitude;pressure_sealevel;temperature;humidity
44934;BME280;30667;43.614;1.442;2023-02-28T00:02:20;100396.72;;;1.88;100.00
44934;BME280;30667;43.614;1.442;2023-02-28T00:04:45;100399.41;;;1.88;100.00
44934;BME280;30667;43.614;1.442;2023-02-28T00:07:18;100401.03;;;1.89;100.00
44934;BME280;30667;43.614;1.442;2023-02-28T00:09:43;100402.28;;;1.86;100.00
44934;BME280;30667;43.614;1.442;2023-02-28T00:12:09;100401.69;;;1.84;100.00
44934;BME280;30667;43.614;1.442;2023-02-28T00:14:36;100390.81;;;1.79;100.00
44934;BME280;30667;43.614;1.442;2023-02-28T00:17:02;100400.06;;;1.76;100.00
44934;BME280;30667;43.614;1.442;2023-02-28T00:19:27;100408.25;;;1.75;100.00
44934;BME280;30667;43.614;1.442;2023-02-28T00:21:52;100404.16;;;1.72;100.00
44934;BME280;30667;43.614;1.442;2023-02-28T00:24:18;100413.81;;;1.73;100.00
44934;BME280;30667;43.614;1.442;2023-02-28T00:26:43;100413.81;;;1.73;100.00
44934;BME280;30667;43.614;1.442;2023-02-28T00:29:09;100403.13;;;1.73;100.00
44934;BME280;30667;43.614;1.442;2023-02-28T00:31:35;100410.53;;;1.71;100.00
44934;BME280;30667;43.614;1.442;2023-02-28T00:34:00;100406.84;;;1.66;100.00
44934;BME280;30667;43.614;1.442;2023-02-28T00:36:26;100415.28;;;1.69;100.00
44934;BME280;30667;43.614;1.442;2023-02-28T00:38:52;100419.16;;;1.67;100.00
44934;BME280;30667;43.614;1.442;2023-02-28T00:41:17;100409.94;;;1.62;100.00
44934;BME280;30667;43.614;1.442;2023-02-28T00:43:43;100410.53;;;1.58;100.00
44934;BME280;30667;43.614;1.442;2023-02-28T00:46:08;100407.06;;;1.57;100.00
44934;BME280;30667;43.614;1.442;2023-02-28T00:48:33;100416.53;;;1.53;100.00
44934;BME280;30667;43.614;1.442;2023-02-28T00:50:59;100425.56;;;1.52;100.00
44934;BME280;30667;43.614;1.442;2023-02-28T00:53:25;100415.91;;;1.51;100.00
44934;BME280;30667;43.614;1.442;2023-02-28T00:55:50;100432.94;;;1.50;100.00
44934;BME280;30667;43.614;1.442;2023-02-28T00:58:16;100429.84;;;1.47;100.00
44934;BME280;30667;43.614;1.442;2023-02-28T01:00:41;100431.50;;;1.48;100.00
44934;BME280;30667;43.614;1.442;2023-02-28T01:03:07;100444.84;;;1.48;100.00
44934;BME280;30667;43.614;1.442;2023-02-28T01:05:32;100445.44;;;1.50;100.00
44934;BME280;30667;43.614;1.442;2023-02-28T01:07:58;100443.81;;;1.49;100.00
44934;BME280;30667;43.614;1.442;2023-02-28T01:10:23;100444.44;;;1.51;100.00
44934;BME280;30667;43.614;1.442;2023-02-28T01:12:49;100454.28;;;1.50;100.00
44934;BME280;30667;43.614;1.442;2023-02-28T01:15:15;100452.22;;;1.52;100.00
44934;BME280;30667;43.614;1.442;2023-02-28T01:17:40;100446.28;;;1.50;100.00
44934;BME280;30667;43.614;1.442;2023-02-28T01:20:06;100445.66;;;1.48;100.00
44934;BME280;30667;43.614;1.442;2023-02-28T01:22:32;100453.84;;;1.47;100.00
44934;BME280;30667;43.614;1.442;2023-02-28T01:24:57;100459.81;;;1.49;100.00
44934;BME280;30667;43.614;1.442;2023-02-28T01:27:22;100461.03;;;1.46;100.00
44934;BME280;30667;43.614;1.442;2023-02-28T01:29:48;100465.97;;;1.49;100.00
44934;BME280;30667;43.614;1.442;2023-02-28T01:32:13;100461.66;;;1.48;100.00
44934;BME280;30667;43.614;1.442;2023-02-28T01:34:38;100469.03;;;1.46;100.00
44934;BME280;30667;43.614;1.442;2023-02-28T01:37:04;100471.50;;;1.48;100.00
44934;BME280;30667;43.614;1.442;2023-02-28T01:39:29;100458.16;;;1.48;100.00
44934;BME280;30667;43.614;1.442;2023-02-28T01:41:55;100462.69;;;1.47;100.00
44934;BME280;30667;43.614;1.442;2023-02-28T01:47:36;100468.84;;;1.48;100.00
44934;BME280;30667;43.614;1.442;2023-02-28T01:50:06;100472.50;;;1.47;100.00
44934;BME280;30667;43.614;1.442;2023-02-28T01:52:33;100486.25;;;1.43;100.00
44934;BME280;30667;43.614;1.442;2023-02-28T01:55:00;100478.25;;;1.43;100.00
44934;BME280;30667;43.614;1.442;2023-02-28T01:57:35;100482.78;;;1.43;100.00
44934;BME280;30667;43.614;1.442;2023-02-28T02:00:09;100485.84;;;1.47;100.00
44934;BME280;30667;43.614;1.442;2023-02-28T02:02:36;100489.75;;;1.51;100.00
44934;BME280;30667;43.614;1.442;2023-02-28T02:05:20;100488.31;;;1.48;100.00
44934;BME280;30667;43.614;1.442;2023-02-28T02:07:49;100495.09;;;1.51;100.00
44934;BME280;30667;43.614;1.442;2023-02-28T02:10:21;100493.03;;;1.46;100.00
44934;BME280;30667;43.614;1.442;2023-02-28T02:16:00;100490.38;;;1.46;100.00
44934;BME280;30667;43.614;1.442;2023-02-28T02:18:35;100495.72;;;1.46;100.00
44934;BME280;30667;43.614;1.442;2023-02-28T02:21:15;100490.97;;;1.48;100.00
44934;BME280;30667;43.614;1.442;2023-02-28T02:24:16;100501.44;;;1.50;100.00
44934;BME280;30667;43.614;1.442;2023-02-28T02:35:21;100488.34;;;1.55;100.00
44934;BME280;30667;43.614;1.442;2023-02-28T02:38:02;100479.28;;;1.56;100.00
44934;BME280;30667;43.614;1.442;2023-02-28T02:41:08;100478.28;;;1.57;100.00
44934;BME280;30667;43.614;1.442;2023-02-28T02:46:16;100483.41;;;1.58;100.00
44934;BME280;30667;43.614;1.442;2023-02-28T02:48:45;100481.75;;;1.57;100.00
44934;BME280;30667;43.614;1.442;2023-02-28T02:51:14;100479.88;;;1.58;100.00
44934;BME280;30667;43.614;1.442;2023-02-28T02:53:54;100473.94;;;1.62;100.00
44934;BME280;30667;43.614;1.442;2023-02-28T02:56:26;100474.16;;;1.61;100.00
44934;BME280;30667;43.614;1.442;2023-02-28T02:58:57;100474.16;;;1.61;100.00
44934;BME280;30667;43.614;1.442;2023-02-28T03:01:25;100476.59;;;1.62;100.00
44934;BME280;30667;43.614;1.442;2023-02-28T03:03:58;100475.19;;;1.60;100.00
44934;BME280;30667;43.614;1.442;2023-02-28T03:06:26;100476.81;;;1.61;100.00
44934;BME280;30667;43.614;1.442;2023-02-28T03:08:51;100467.78;;;1.62;100.00
44934;BME280;30667;43.614;1.442;2023-02-28T03:11:17;100469.44;;;1.63;100.00
44934;BME280;30667;43.614;1.442;2023-02-28T03:34:01;100466.97;;;1.61;100.00
44934;BME280;30667;43.614;1.442;2023-02-28T03:36:32;100467.19;;;1.60;100.00
44934;BME280;30667;43.614;1.442;2023-02-28T03:39:06;100462.28;;;1.57;100.00
44934;BME280;30667;43.614;1.442;2023-02-28T03:41:39;100467.41;;;1.58;100.00
44934;BME280;30667;43.614;1.442;2023-02-28T03:44:15;100463.69;;;1.59;100.00
44934;BME280;30667;43.614;1.442;2023-02-28T03:46:47;100461.22;;;1.58;100.00
44934;BME280;30667;43.614;1.442;2023-02-28T03:49:22;100463.47;;;1.61;100.00
44934;BME280;30667;43.614;1.442;2023-02-28T03:51:51;100458.56;;;1.58;100.00
44934;BME280;30667;43.614;1.442;2023-02-28T03:54:22;100450.75;;;1.56;100.00
44934;BME280;30667;43.614;1.442;2023-02-28T03:57:01;100460.63;;;1.56;100.00
44934;BME280;30667;43.614;1.442;2023-02-28T03:59:41;100469.66;;;1.55;100.00
44934;BME280;30667;43.614;1.442;2023-02-28T04:02:08;100462.88;;;1.52;100.00
44934;BME280;30667;43.614;1.442;2023-02-28T04:04:34;100462.28;;;1.50;100.00
44934;BME280;30667;43.614;1.442;2023-02-28T04:07:08;100452.63;;;1.49;100.00
44934;BME280;30667;43.614;1.442;2023-02-28T04:09:34;100462.69;;;1.47;100.00
44934;BME280;30667;43.614;1.442;2023-02-28T04:11:59;100459.59;;;1.43;100.00
44934;BME280;30667;43.614;1.442;2023-02-28T04:14:25;100465.56;;;1.45;100.00
44934;BME280;30667;43.614;1.442;2023-02-28T04:16:50;100464.53;;;1.40;100.00
44934;BME280;30667;43.614;1.442;2023-02-28T04:19:17;100465.34;;;1.40;100.00
44934;BME280;30667;43.614;1.442;2023-02-28T04:21:48;100463.13;;;1.37;100.00
44934;BME280;30667;43.614;1.442;2023-02-28T04:24:19;100465.56;;;1.39;100.00
44934;BME280;30667;43.614;1.442;2023-02-28T04:26:47;100462.28;;;1.37;100.00
44934;BME280;30667;43.614;1.442;2023-02-28T04:29:17;100465.97;;;1.36;100.00
44934;BME280;30667;43.614;1.442;2023-02-28T04:31:44;100462.06;;;1.32;100.00
44934;BME280;30667;43.614;1.442;2023-02-28T04:34:09;100463.94;;;1.31;100.00
44934;BME280;30667;43.614;1.442;2023-02-28T04:36:34;100460.44;;;1.24;100.00
44934;BME280;30667;43.614;1.442;2023-02-28T04:39:00;100472.53;;;1.26;100.00
44934;BME280;30667;43.614;1.442;2023-02-28T04:41:25;100471.91;;;1.24;100.00
44934;BME280;30667;43.614;1.442;2023-02-28T04:43:52;100471.28;;;1.22;100.00
44934;BME280;30667;43.614;1.442;2023-02-28T04:46:18;100470.69;;;1.20;100.00
44934;BME280;30667;43.614;1.442;2023-02-28T04:48:43;100478.47;;;1.22;100.00
44934;BME280;30667;43.614;1.442;2023-02-28T04:51:12;100474.16;;;1.21;100.00
44934;BME280;30667;43.614;1.442;2023-02-28T04:53:39;100468.84;;;1.21;100.00
44934;BME280;30667;43.614;1.442;2023-02-28T04:56:06;100469.03;;;1.19;100.00
44934;BME280;30667;43.614;1.442;2023-02-28T04:58:32;100477.25;;;1.18;100.00
44934;BME280;30667;43.614;1.442;2023-02-28T05:01:06;100473.97;;;1.16;100.00
44934;BME280;30667;43.614;1.442;2023-02-28T05:03:38;100482.78;;;1.09;100.00
44934;BME280;30667;43.614;1.442;2023-02-28T05:06:06;100474.97;;;1.08;100.00
44934;BME280;30667;43.614;1.442;2023-02-28T05:08:31;100485.22;;;1.04;100.00
44934;BME280;30667;43.614;1.442;2023-02-28T05:10:57;100484.41;;;1.04;100.00
44934;BME280;30667;43.614;1.442;2023-02-28T05:13:22;100483.97;;;1.00;100.00
44934;BME280;30667;43.614;1.442;2023-02-28T05:15:48;100486.84;;;0.99;100.00
44934;BME280;30667;43.614;1.442;2023-02-28T05:18:13;100489.72;;;0.97;100.00
44934;BME280;30667;43.614;1.442;2023-02-28T05:20:38;100484.38;;;0.97;100.00
44934;BME280;30667;43.614;1.442;2023-02-28T05:23:04;100480.31;;;0.95;100.00
44934;BME280;30667;43.614;1.442;2023-02-28T05:25:29;100480.91;;;0.90;100.00
44934;BME280;30667;43.614;1.442;2023-02-28T05:27:55;100479.25;;;0.89;100.00
44934;BME280;30667;43.614;1.442;2023-02-28T05:30:20;100475.78;;;0.88;100.00
44934;BME280;30667;43.614;1.442;2023-02-28T05:32:50;100480.50;;;0.86;100.00
44934;BME280;30667;43.614;1.442;2023-02-28T05:35:15;100481.72;;;0.84;100.00
44934;BME280;30667;43.614;1.442;2023-02-28T05:37:41;100486.44;;;0.82;100.00
44934;BME280;30667;43.614;1.442;2023-02-28T05:40:07;100491.13;;;0.80;100.00
44934;BME280;30667;43.614;1.442;2023-02-28T05:42:35;100498.50;;;0.78;100.00
44934;BME280;30667;43.614;1.442;2023-02-28T05:45:01;100490.91;;;0.75;100.00
44934;BME280;30667;43.614;1.442;2023-02-28T05:47:26;100498.28;;;0.72;100.00
44934;BME280;30667;43.614;1.442;2023-02-28T05:49:52;100495.81;;;0.71;100.00
44934;BME280;30667;43.614;1.442;2023-02-28T05:52:17;100503.41;;;0.67;100.00
44934;BME280;30667;43.614;1.442;2023-02-28T05:54:42;100504.81;;;0.70;100.00
44934;BME280;30667;43.614;1.442;2023-02-28T05:57:08;100503.19;;;0.69;100.00
44934;BME280;30667;43.614;1.442;2023-02-28T05:59:33;100509.72;;;0.66;100.00
44934;BME280;30667;43.614;1.442;2023-02-28T06:01:59;100508.47;;;0.62;100.00
44934;BME280;30667;43.614;1.442;2023-02-28T06:04:24;100513.38;;;0.59;100.00
44934;BME280;30667;43.614;1.442;2023-02-28T06:06:50;100517.50;;;0.54;100.00
44934;BME280;30667;43.614;1.442;2023-02-28T06:09:16;100516.66;;;0.54;100.00
44934;BME280;30667;43.614;1.442;2023-02-28T06:11:43;100514.38;;;0.51;100.00
44934;BME280;30667;43.614;1.442;2023-02-28T06:14:15;100510.28;;;0.48;100.00
44934;BME280;30667;43.614;1.442;2023-02-28T06:16:41;100509.69;;;0.46;100.00
44934;BME280;30667;43.614;1.442;2023-02-28T06:19:06;100512.53;;;0.45;100.00
44934;BME280;30667;43.614;1.442;2023-02-28T06:21:32;100517.22;;;0.43;100.00
44934;BME280;30667;43.614;1.442;2023-02-28T06:23:58;100513.31;;;0.39;100.00
44934;BME280;30667;43.614;1.442;2023-02-28T06:26:24;100511.47;;;0.39;100.00
44934;BME280;30667;43.614;1.442;2023-02-28T06:28:50;100517.00;;;0.38;100.00
44934;BME280;30667;43.614;1.442;2023-02-28T06:31:17;100515.16;;;0.38;100.00
44934;BME280;30667;43.614;1.442;2023-02-28T06:33:43;100522.13;;;0.39;100.00
44934;BME280;30667;43.614;1.442;2023-02-28T06:36:10;100518.66;;;0.39;100.00
44934;BME280;30667;43.614;1.442;2023-02-28T06:38:36;100521.94;;;0.41;100.00
44934;BME280;30667;43.614;1.442;2023-02-28T06:41:02;100517.41;;;0.41;100.00
44934;BME280;30667;43.614;1.442;2023-02-28T06:43:30;100520.91;;;0.42;100.00
44934;BME280;30667;43.614;1.442;2023-02-28T06:46:01;100515.59;;;0.42;100.00
44934;BME280;30667;43.614;1.442;2023-02-28T06:48:27;100520.72;;;0.43;100.00
44934;BME280;30667;43.614;1.442;2023-02-28T06:51:10;100526.25;;;0.42;100.00
44934;BME280;30667;43.614;1.442;2023-02-28T06:53:36;100521.72;;;0.42;100.00
44934;BME280;30667;43.614;1.442;2023-02-28T06:56:10;100515.59;;;0.42;100.00
44934;BME280;30667;43.614;1.442;2023-02-28T06:58:36;100527.25;;;0.41;100.00
44934;BME280;30667;43.614;1.442;2023-02-28T07:01:03;100530.13;;;0.46;100.00
44934;BME280;30667;43.614;1.442;2023-02-28T07:03:28;100528.31;;;0.46;100.00
44934;BME280;30667;43.614;1.442;2023-02-28T07:05:54;100545.28;;;0.45;100.00
44934;BME280;30667;43.614;1.442;2023-02-28T07:08:22;100552.28;;;0.46;100.00
44934;BME280;30667;43.614;1.442;2023-02-28T07:10:51;100541.19;;;0.49;100.00
44934;BME280;30667;43.614;1.442;2023-02-28T07:13:17;100538.78;;;0.54;100.00
44934;BME280;30667;43.614;1.442;2023-02-28T07:15:42;100535.94;;;0.56;100.00
44934;BME280;30667;43.614;1.442;2023-02-28T07:18:08;100544.91;;;0.55;100.00
44934;BME280;30667;43.614;1.442;2023-02-28T07:20:33;100544.31;;;0.53;100.00
44934;BME280;30667;43.614;1.442;2023-02-28T07:22:58;100547.38;;;0.57;100.00
44934;BME280;30667;43.614;1.442;2023-02-28T07:25:26;100548.00;;;0.59;100.00
44934;BME280;30667;43.614;1.442;2023-02-28T07:27:52;100546.41;;;0.64;100.00
44934;BME280;30667;43.614;1.442;2023-02-28T07:30:18;100552.72;;;0.63;100.00
44934;BME280;30667;43.614;1.442;2023-02-28T07:32:43;100558.47;;;0.67;100.00
44934;BME280;30667;43.614;1.442;2023-02-28T07:35:09;100558.28;;;0.68;100.00
44934;BME280;30667;43.614;1.442;2023-02-28T07:37:34;100554.81;;;0.75;100.00
44934;BME280;30667;43.614;1.442;2023-02-28T07:40:07;100559.34;;;0.74;100.00
44934;BME280;30667;43.614;1.442;2023-02-28T07:42:34;100565.91;;;0.78;100.00
44934;BME280;30667;43.614;1.442;2023-02-28T07:45:00;100567.16;;;0.82;100.00
44934;BME280;30667;43.614;1.442;2023-02-28T07:47:25;100576.41;;;0.93;100.00
44934;BME280;30667;43.614;1.442;2023-02-28T07:49:51;100576.63;;;0.98;100.00
44934;BME280;30667;43.614;1.442;2023-02-28T07:52:16;100567.63;;;0.99;100.00
44934;BME280;30667;43.614;1.442;2023-02-28T07:54:42;100565.78;;;1.00;100.00
44934;BME280;30667;43.614;1.442;2023-02-28T07:57:07;100566.19;;;1.03;100.00
44934;BME280;30667;43.614;1.442;2023-02-28T07:59:33;100567.03;;;1.11;100.00
44934;BME280;30667;43.614;1.442;2023-02-28T08:01:58;100568.69;;;1.18;100.00
44934;BME280;30667;43.614;1.442;2023-02-28T08:04:24;100568.91;;;1.23;100.00
44934;BME280;30667;43.614;1.442;2023-02-28T08:06:50;100565.22;;;1.31;100.00
44934;BME280;30667;43.614;1.442;2023-02-28T08:09:17;100571.19;;;1.33;100.00
44934;BME280;30667;43.614;1.442;2023-02-28T08:11:42;100574.44;;;1.42;100.00
44934;BME280;30667;43.614;1.442;2023-02-28T08:14:08;100579.19;;;1.47;100.00
44934;BME280;30667;43.614;1.442;2023-02-28T08:16:33;100579.22;;;1.53;100.00
44934;BME280;30667;43.614;1.442;2023-02-28T08:18:58;100578.78;;;1.56;100.00
44934;BME280;30667;43.614;1.442;2023-02-28T08:21:24;100584.13;;;1.63;100.00
44934;BME280;30667;43.614;1.442;2023-02-28T08:23:50;100585.16;;;1.75;100.00
44934;BME280;30667;43.614;1.442;2023-02-28T08:26:17;100584.13;;;1.76;100.00
44934;BME280;30667;43.614;1.442;2023-02-28T08:28:43;100578.59;;;1.85;100.00
44934;BME280;30667;43.614;1.442;2023-02-28T08:31:11;100572.41;;;1.97;100.00
44934;BME280;30667;43.614;1.442;2023-02-28T08:33:39;100574.88;;;2.06;100.00
44934;BME280;30667;43.614;1.442;2023-02-28T08:36:05;100571.78;;;2.15;100.00
44934;BME280;30667;43.614;1.442;2023-02-28T08:38:31;100572.38;;;2.24;100.00
44934;BME280;30667;43.614;1.442;2023-02-28T08:41:07;100581.84;;;2.27;100.00
44934;BME280;30667;43.614;1.442;2023-02-28T08:43:34;100583.66;;;2.26;100.00
44934;BME280;30667;43.614;1.442;2023-02-28T08:46:01;100574.63;;;2.27;100.00
44934;BME280;30667;43.614;1.442;2023-02-28T08:48:29;100575.03;;;2.31;100.00
44934;BME280;30667;43.614;1.442;2023-02-28T08:51:05;100586.94;;;2.35;100.00
44934;BME280;30667;43.614;1.442;2023-02-28T08:53:32;100589.38;;;2.43;100.00
44934;BME280;30667;43.614;1.442;2023-02-28T08:56:03;100583.22;;;2.36;100.00
44934;BME280;30667;43.614;1.442;2023-02-28T08:58:29;100591.44;;;2.41;100.00
44934;BME280;30667;43.614;1.442;2023-02-28T09:00:55;100604.78;;;2.48;100.00
44934;BME280;30667;43.614;1.442;2023-02-28T09:03:22;100593.03;;;2.49;100.00
44934;BME280;30667;43.614;1.442;2023-02-28T09:05:58;100603.97;;;2.47;100.00
44934;BME280;30667;43.614;1.442;2023-02-28T09:08:26;100597.41;;;2.43;100.00
44934;BME280;30667;43.614;1.442;2023-02-28T09:10:51;100599.22;;;2.49;100.00
44934;BME280;30667;43.614;1.442;2023-02-28T09:13:18;100596.38;;;2.44;100.00
44934;BME280;30667;43.614;1.442;2023-02-28T09:15:43;100590.41;;;2.42;100.00
44934;BME280;30667;43.614;1.442;2023-02-28T09:18:09;100599.22;;;2.49;100.00
44934;BME280;30667;43.614;1.442;2023-02-28T09:20:38;100596.75;;;2.54;100.00
44934;BME280;30667;43.614;1.442;2023-02-28T09:23:03;100596.72;;;2.61;100.00
44934;BME280;30667;43.614;1.442;2023-02-28T09:25:29;100587.25;;;2.65;100.00
44934;BME280;30667;43.614;1.442;2023-02-28T09:27:54;100595.63;;;2.76;100.00
44934;BME280;30667;43.614;1.442;2023-02-28T09:30:20;100592.38;;;2.73;100.00
44934;BME280;30667;43.614;1.442;2023-02-28T09:32:45;100592.78;;;2.70;100.00
44934;BME280;30667;43.614;1.442;2023-02-28T09:35:18;100600.78;;;2.77;100.00
44934;BME280;30667;43.614;1.442;2023-02-28T09:37:43;100603.03;;;2.80;100.00
44934;BME280;30667;43.614;1.442;2023-02-28T09:40:10;100606.28;;;2.89;100.00
44934;BME280;30667;43.614;1.442;2023-02-28T09:42:36;100605.22;;;2.97;99.13
44934;BME280;30667;43.614;1.442;2023-02-28T09:45:06;100611.31;;;3.11;99.19
44934;BME280;30667;43.614;1.442;2023-02-28T09:47:40;100611.72;;;3.14;97.48
44934;BME280;30667;43.614;1.442;2023-02-28T09:52:53;100603.97;;;3.38;95.83
44934;BME280;30667;43.614;1.442;2023-02-28T09:55:30;100608.56;;;3.31;93.98
44934;BME280;30667;43.614;1.442;2023-02-28T09:57:58;100606.50;;;3.26;93.91
44934;BME280;30667;43.614;1.442;2023-02-28T10:00:30;100620.31;;;3.23;94.53
44934;BME280;30667;43.614;1.442;2023-02-28T10:05:54;100620.88;;;3.32;94.35
44934;BME280;30667;43.614;1.442;2023-02-28T10:08:30;100609.47;;;3.50;93.81
44934;BME280;30667;43.614;1.442;2023-02-28T10:11:01;100604.88;;;3.57;92.67
44934;BME280;30667;43.614;1.442;2023-02-28T10:16:59;100598.22;;;3.66;88.77
44934;BME280;30667;43.614;1.442;2023-02-28T10:22:05;100614.19;;;3.48;87.41
44934;BME280;30667;43.614;1.442;2023-02-28T10:24:40;100613.81;;;3.44;87.64
44934;BME280;30667;43.614;1.442;2023-02-28T10:27:24;100615.28;;;3.40;88.99
44934;BME280;30667;43.614;1.442;2023-02-28T10:29:55;100619.84;;;3.33;89.58
44934;BME280;30667;43.614;1.442;2023-02-28T10:32:24;100614.91;;;3.30;88.70
44934;BME280;30667;43.614;1.442;2023-02-28T10:34:59;100615.72;;;3.37;90.16
44934;BME280;30667;43.614;1.442;2023-02-28T10:37:26;100620.19;;;3.43;90.13
44934;BME280;30667;43.614;1.442;2023-02-28T10:39:52;100625.53;;;3.43;87.87
44934;BME280;30667;43.614;1.442;2023-02-28T10:44:47;100617.44;;;3.56;86.54
44934;BME280;30667;43.614;1.442;2023-02-28T10:47:16;100618.03;;;3.58;84.32
44934;BME280;30667;43.614;1.442;2023-02-28T10:49:48;100611.00;;;3.64;85.58
44934;BME280;30667;43.614;1.442;2023-02-28T10:52:33;100613.41;;;3.72;87.17
44934;BME280;30667;43.614;1.442;2023-02-28T10:55:23;100611.72;;;3.78;89.02
44934;BME280;30667;43.614;1.442;2023-02-28T10:57:51;100606.34;;;3.78;87.83
44934;BME280;30667;43.614;1.442;2023-02-28T11:00:20;100608.44;;;3.76;87.96
44934;BME280;30667;43.614;1.442;2023-02-28T11:02:47;100606.09;;;3.61;89.02
44934;BME280;30667;43.614;1.442;2023-02-28T11:08:05;100617.44;;;3.56;89.37
44934;BME280;30667;43.614;1.442;2023-02-28T11:10:31;100615.34;;;3.58;90.60
44934;BME280;30667;43.614;1.442;2023-02-28T11:13:00;100621.28;;;3.67;90.57
44934;BME280;30667;43.614;1.442;2023-02-28T11:15:32;100619.41;;;3.68;90.09
44934;BME280;30667;43.614;1.442;2023-02-28T11:20:38;100615.03;;;3.73;87.47
44934;BME280;30667;43.614;1.442;2023-02-28T11:23:05;100613.19;;;3.74;85.68
44934;BME280;30667;43.614;1.442;2023-02-28T11:25:37;100610.69;;;3.79;86.79
44934;BME280;30667;43.614;1.442;2023-02-28T11:28:26;100609.25;;;3.76;87.15
44934;BME280;30667;43.614;1.442;2023-02-28T11:33:30;100616.03;;;4.04;86.45
44934;BME280;30667;43.614;1.442;2023-02-28T11:36:00;100609.38;;;4.32;84.93
44934;BME280;30667;43.614;1.442;2023-02-28T11:38:27;100606.13;;;4.30;79.33
44934;BME280;30667;43.614;1.442;2023-02-28T11:49:40;100588.94;;;4.56;77.74
44934;BME280;30667;43.614;1.442;2023-02-28T11:52:21;100576.94;;;4.77;75.11
44934;BME280;30667;43.614;1.442;2023-02-28T11:55:16;100571.06;;;4.68;69.46
44934;BME280;30667;43.614;1.442;2023-02-28T11:57:52;100570.56;;;4.60;69.29
44934;BME280;30667;43.614;1.442;2023-02-28T12:03:29;100571.41;;;4.90;62.77
44934;BME280;30667;43.614;1.442;2023-02-28T12:09:05;100568.97;;;4.89;63.28
44934;BME280;30667;43.614;1.442;2023-02-28T12:11:52;100570.97;;;4.94;60.58
44934;BME280;30667;43.614;1.442;2023-02-28T12:14:29;100559.66;;;4.91;59.00
44934;BME280;30667;43.614;1.442;2023-02-28T12:17:21;100559.56;;;4.98;59.43
44934;BME280;30667;43.614;1.442;2023-02-28T12:19:55;100555.53;;;5.07;57.73
44934;BME280;30667;43.614;1.442;2023-02-28T12:25:35;100540.47;;;5.06;58.21
44934;BME280;30667;43.614;1.442;2023-02-28T12:28:09;100534.88;;;5.08;58.52
44934;BME280;30667;43.614;1.442;2023-02-28T12:30:41;100536.19;;;5.17;59.10
44934;BME280;30667;43.614;1.442;2023-02-28T12:33:16;100539.81;;;5.23;59.57
44934;BME280;30667;43.614;1.442;2023-02-28T12:35:58;100537.34;;;5.21;59.32
44934;BME280;30667;43.614;1.442;2023-02-28T12:38:27;100529.28;;;5.09;59.05
44934;BME280;30667;43.614;1.442;2023-02-28T12:41:02;100530.81;;;5.17;59.78
44934;BME280;30667;43.614;1.442;2023-02-28T12:43:42;100534.53;;;5.16;59.71
44934;BME280;30667;43.614;1.442;2023-02-28T12:46:21;100527.41;;;5.10;60.03
44934;BME280;30667;43.614;1.442;2023-02-28T12:48:52;100526.13;;;5.13;59.46
44934;BME280;30667;43.614;1.442;2023-02-28T12:51:18;100526.38;;;5.11;58.78
44934;BME280;30667;43.614;1.442;2023-02-28T12:59:41;100514.00;;;5.10;56.55
44934;BME280;30667;43.614;1.442;2023-02-28T13:10:07;100518.22;;;5.18;56.74
44934;BME280;30667;43.614;1.442;2023-02-28T13:12:34;100513.88;;;5.17;56.62
44934;BME280;30667;43.614;1.442;2023-02-28T13:15:22;100493.50;;;5.16;56.15
44934;BME280;30667;43.614;1.442;2023-02-28T13:17:59;100498.16;;;5.20;56.40
44934;BME280;30667;43.614;1.442;2023-02-28T13:20:28;100492.66;;;5.15;55.85
44934;BME280;30667;43.614;1.442;2023-02-28T13:22:55;100493.84;;;5.07;54.99
44934;BME280;30667;43.614;1.442;2023-02-28T13:27:56;100497.41;;;5.01;53.02
44934;BME280;30667;43.614;1.442;2023-02-28T13:33:32;100507.41;;;4.94;52.14
44934;BME280;30667;43.614;1.442;2023-02-28T13:44:17;100489.97;;;5.03;51.77
44934;BME280;30667;43.614;1.442;2023-02-28T13:57:56;100475.91;;;5.32;48.20
44934;BME280;30667;43.614;1.442;2023-02-28T14:09:03;100478.38;;;5.45;48.42
44934;BME280;30667;43.614;1.442;2023-02-28T14:11:40;100483.38;;;5.41;49.25
44934;BME280;30667;43.614;1.442;2023-02-28T14:14:08;100477.56;;;5.44;49.13
44934;BME280;30667;43.614;1.442;2023-02-28T14:16:46;100479.06;;;5.40;49.51
44934;BME280;30667;43.614;1.442;2023-02-28T14:19:21;100497.25;;;5.38;49.60
44934;BME280;30667;43.614;1.442;2023-02-28T14:22:04;100490.69;;;5.11;51.55
44934;BME280;30667;43.614;1.442;2023-02-28T14:30:43;100493.91;;;5.01;52.17
44934;BME280;30667;43.614;1.442;2023-02-28T14:33:31;100499.66;;;5.04;51.76
44934;BME280;30667;43.614;1.442;2023-02-28T14:38:58;100499.31;;;5.13;51.31
44934;BME280;30667;43.614;1.442;2023-02-28T14:41:33;100500.13;;;5.13;50.72
44934;BME280;30667;43.614;1.442;2023-02-28T14:44:16;100488.00;;;5.11;50.48
44934;BME280;30667;43.614;1.442;2023-02-28T14:46:42;100491.38;;;5.06;49.38
44934;BME280;30667;43.614;1.442;2023-02-28T14:49:36;100493.94;;;5.13;49.24
44934;BME280;30667;43.614;1.442;2023-02-28T14:52:14;100495.84;;;5.24;49.15
44934;BME280;30667;43.614;1.442;2023-02-28T14:54:41;100490.44;;;5.12;47.39
44934;BME280;30667;43.614;1.442;2023-02-28T14:57:31;100495.78;;;5.12;47.33
44934;BME280;30667;43.614;1.442;2023-02-28T15:00:06;100489.16;;;5.15;47.90
44934;BME280;30667;43.614;1.442;2023-02-28T15:02:39;100491.84;;;5.15;47.78
44934;BME280;30667;43.614;1.442;2023-02-28T15:05:18;100498.66;;;5.29;48.24
44934;BME280;30667;43.614;1.442;2023-02-28T15:07:45;100495.03;;;5.23;48.10
44934;BME280;30667;43.614;1.442;2023-02-28T15:10:17;100497.78;;;5.17;47.65
44934;BME280;30667;43.614;1.442;2023-02-28T15:12:52;100502.44;;;5.09;47.50
44934;BME280;30667;43.614;1.442;2023-02-28T15:15:20;100492.88;;;5.02;47.41
44934;BME280;30667;43.614;1.442;2023-02-28T15:17:50;100492.88;;;5.02;47.44
44934;BME280;30667;43.614;1.442;2023-02-28T15:20:19;100495.44;;;5.08;47.97